Aeroporto :
LOGIN :

Iscrizione | Disclaimer

   EN    FR    IT 

 










Sommario :    VFR   VFR Marginale   IFR   IFR Intensivo   IFR Molto Intensivo
Visibilità : 
Base nubi : 
>= 8 km
>= 3000ft
5 / 8 km
1000 / 3000 ft
1500m / 5 km
500 / 1000 ft
800 / 1500m
200 / 500 ft
< 800m
< 200 ft
Simboli :   Temporali  Nebbia  Neve Forte  Precipitazioni Forti  Vento > 20 kt
SIGMETs :   Varie  Temporali  Ghiacco  Turbolenza  Onda orograficha  Ceneri Vulcaniche






- Altitudine del aeroporto : 75 ft
- Codice IATA : MRH


EGYM - RAF Marham

ULTIMO METAR :
  • 271450Z 31016KT 9999 SCT035 06/M01 Q1002 NOSIG RMK BLU BLU

METARs OBSOLETI :
  • 271420Z 30021KT 9999 SCT030 07/01 Q1001 NOSIG RMK BLU BLU
  • 271350Z 32017KT 9999 SCT030 06/01 Q1000 NOSIG RMK BLU BLU
  • 271320Z 32018KT 9999 FEW020 06/03 Q0999 NOSIG RMK BLU BLU
  • 271313Z 33015KT 9999 FEW020 06/02 Q0999 NOSIG RMK BLU BLU
  • 271250Z 32015KT 9999 FEW016 SCT024 05/03 Q0999 BECMG 9999 NSW SCT030 RMK WHT BECMG BLU
  • 271220Z 32015KT 9999 SCT009 SCT016 04/02 Q0999 BECMG 9999 SCT020 RMK GRN BECMG WHT
  • 271150Z 32014KT 9999 SCT009 BKN024 04/03 Q0998 BECMG 9999 SCT020 RMK GRN BECMG WHT

TAF TAF EGYM
Valido dal 27 a 15 ore il 27 a 19 ore UTC


271428Z 2715/2719 31018G28KT 9999 SCT030
PROB30
TEMPO 2715/2717 7000 SHRA



MetMap, La meteo Aeronautica in un colpo d'occhio ! - Copyright ORBIFLY Dicembre 2007 - Disclaimer

ORBIFLY MET'MAP TEAM :

Programmazione e sviluppo : Alexandra Zaïnal
Concezione : Baudouin d'Aumeries
Aiuto per la programmazione : Marc-Olivier Méhu
Supporto tecnico e logistico : Manuel Goepfert
Aiuto per la traduzione : Arnaldo La Scala

Contatto : metmap@orbifly.com




FONTI E CREDITI :

   NOAA